createdAt,value
2019-05-25T00:00:37.818Z,4.35
2019-05-25T00:03:05.370Z,6.03
2019-05-25T00:05:33.402Z,3.62
2019-05-25T00:08:00.876Z,4.93
2019-05-25T00:10:28.363Z,5.30
2019-05-25T00:12:55.818Z,5.05
2019-05-25T00:15:23.655Z,4.85
2019-05-25T00:17:51.339Z,4.45
2019-05-25T00:20:18.815Z,5.00
2019-05-25T00:22:46.271Z,5.43
2019-05-25T00:25:13.912Z,4.93
2019-05-25T00:27:41.373Z,5.05
2019-05-25T00:30:08.919Z,4.80
2019-05-25T00:32:36.386Z,4.87
2019-05-25T00:35:03.901Z,5.50
2019-05-25T00:37:31.404Z,5.90
2019-05-25T00:39:58.859Z,5.65
2019-05-25T00:42:26.389Z,4.25
2019-05-25T00:44:53.872Z,6.55
2019-05-25T00:47:21.350Z,6.35
2019-05-25T00:49:48.948Z,5.57
2019-05-25T00:52:16.397Z,4.22
2019-05-25T00:54:43.856Z,4.60
2019-05-25T00:57:11.314Z,4.57
2019-05-25T00:59:38.903Z,5.28
2019-05-25T01:02:06.359Z,5.40
2019-05-25T01:04:33.851Z,6.37
2019-05-25T01:07:01.302Z,5.50
2019-05-25T01:09:28.772Z,5.30
2019-05-25T01:11:56.226Z,5.68
2019-05-25T01:14:23.711Z,5.35
2019-05-25T01:16:51.363Z,3.95
2019-05-25T01:19:18.898Z,4.10
2019-05-25T01:21:46.355Z,4.50
2019-05-25T01:24:13.888Z,4.55
2019-05-25T01:26:41.457Z,4.60
2019-05-25T01:29:08.978Z,4.28
2019-05-25T01:31:36.436Z,5.60
2019-05-25T01:36:37.842Z,6.22
2019-05-25T01:39:05.294Z,5.32
2019-05-25T01:41:32.751Z,4.70
2019-05-25T01:44:01.225Z,4.25
2019-05-25T01:46:28.680Z,4.93
2019-05-25T01:48:56.173Z,5.75
2019-05-25T01:51:23.658Z,4.10
2019-05-25T01:53:51.148Z,3.30
2019-05-25T01:56:18.621Z,4.75
2019-05-25T01:58:46.098Z,4.18
2019-05-25T02:01:13.705Z,4.80
2019-05-25T02:03:41.183Z,3.12
2019-05-25T02:06:08.655Z,4.12
2019-05-25T02:08:36.114Z,3.75
2019-05-25T02:11:03.634Z,3.75
2019-05-25T02:13:31.102Z,4.50
2019-05-25T02:15:58.547Z,3.85
2019-05-25T02:18:26.334Z,5.32
2019-05-25T02:20:53.797Z,4.00
2019-05-25T02:23:21.253Z,4.43
2019-05-25T02:25:48.762Z,4.18
2019-05-25T02:28:16.255Z,4.32
2019-05-25T02:30:43.786Z,4.82
2019-05-25T02:33:11.276Z,4.30
2019-05-25T02:35:38.737Z,5.07
2019-05-25T02:38:06.243Z,4.28
2019-05-25T02:40:33.715Z,5.07
2019-05-25T02:43:01.200Z,6.30
2019-05-25T02:45:28.682Z,4.32
2019-05-25T02:47:56.193Z,3.60
2019-05-25T02:50:23.669Z,4.55
2019-05-25T02:52:51.142Z,4.30
2019-05-25T02:55:33.751Z,4.18
2019-05-25T02:57:48.116Z,5.53
2019-05-25T03:00:15.968Z,4.62
2019-05-25T03:02:43.545Z,4.03
2019-05-25T03:05:11.858Z,4.40
2019-05-25T03:07:39.421Z,4.40
2019-05-25T03:10:06.924Z,5.03
2019-05-25T03:12:34.427Z,5.05
2019-05-25T03:15:02.095Z,4.85
2019-05-25T03:17:29.522Z,5.12
2019-05-25T03:19:57.135Z,4.43
2019-05-25T03:22:24.590Z,4.45
2019-05-25T03:24:52.268Z,5.50
2019-05-25T03:27:19.792Z,5.28
2019-05-25T03:29:47.245Z,5.25
2019-05-25T03:32:14.848Z,8.20
2019-05-25T03:34:42.316Z,8.68
2019-05-25T03:37:09.799Z,6.10
2019-05-25T03:39:37.266Z,8.15
2019-05-25T03:42:04.742Z,7.55
2019-05-25T03:44:32.216Z,4.30
2019-05-25T03:46:59.710Z,5.35
2019-05-25T03:49:27.197Z,4.60
2019-05-25T03:51:54.728Z,5.28
2019-05-25T03:54:22.209Z,5.37
2019-05-25T03:56:49.737Z,5.70
2019-05-25T03:59:17.253Z,4.22
2019-05-25T04:01:44.761Z,4.90
2019-05-25T04:04:12.244Z,5.20
2019-05-25T04:06:39.804Z,4.95
2019-05-25T04:09:07.497Z,5.05
2019-05-25T04:11:34.959Z,5.60
2019-05-25T04:14:02.517Z,6.30
2019-05-25T04:16:29.990Z,4.20
2019-05-25T04:18:57.438Z,4.10
2019-05-25T04:21:25.192Z,4.15
2019-05-25T04:23:52.678Z,6.28
2019-05-25T04:26:22.829Z,6.40
2019-05-25T04:28:47.695Z,4.75
2019-05-25T04:31:15.731Z,4.78
2019-05-25T04:33:43.175Z,5.68
2019-05-25T04:36:10.683Z,4.43
2019-05-25T04:38:38.217Z,5.10
2019-05-25T04:41:05.734Z,5.70
2019-05-25T04:43:33.184Z,5.47
2019-05-25T04:46:00.694Z,3.37
2019-05-25T04:48:28.197Z,4.60
2019-05-25T04:50:55.717Z,6.12
2019-05-25T04:53:23.183Z,4.28
2019-05-25T04:55:50.674Z,4.35
2019-05-25T04:58:18.166Z,4.90
2019-05-25T05:00:45.681Z,4.72
2019-05-25T05:03:13.140Z,4.87
2019-05-25T05:05:40.627Z,4.70
2019-05-25T05:08:08.206Z,4.57
2019-05-25T05:10:35.664Z,4.22
2019-05-25T05:13:03.198Z,4.75
2019-05-25T05:15:30.717Z,4.95
2019-05-25T05:17:58.188Z,5.20
2019-05-25T05:20:25.677Z,5.15
2019-05-25T05:22:53.535Z,4.80
2019-05-25T05:25:21.064Z,5.85
2019-05-25T05:27:48.511Z,4.72
2019-05-25T05:30:16.006Z,5.18
2019-05-25T05:32:43.491Z,5.32
2019-05-25T05:35:10.947Z,4.82
2019-05-25T05:37:38.396Z,4.22
2019-05-25T05:40:07.481Z,6.35
2019-05-25T05:42:34.950Z,6.53
2019-05-25T05:45:02.440Z,5.65
2019-05-25T05:47:29.941Z,8.23
2019-05-25T05:49:57.408Z,7.05
2019-05-25T05:52:24.910Z,5.65
2019-05-25T05:54:52.436Z,5.82
2019-05-25T05:57:19.912Z,6.28
2019-05-25T05:59:47.390Z,6.60
2019-05-25T06:02:14.908Z,8.00
2019-05-25T06:04:43.035Z,7.97
2019-05-25T06:07:10.547Z,7.05
2019-05-25T06:09:38.013Z,6.15
2019-05-25T06:12:05.496Z,7.05
2019-05-25T06:14:33.811Z,7.25
2019-05-25T06:17:02.144Z,8.88
2019-05-25T06:19:29.672Z,6.75
2019-05-25T06:21:57.145Z,8.45
2019-05-25T06:24:24.754Z,9.40
2019-05-25T06:26:52.202Z,6.50
2019-05-25T06:29:19.925Z,6.93
2019-05-25T06:31:47.563Z,6.70
2019-05-25T06:34:15.062Z,6.75
2019-05-25T06:36:42.522Z,6.20
2019-05-25T06:39:10.005Z,7.10
2019-05-25T06:41:37.457Z,7.78
2019-05-25T06:44:04.932Z,5.60
2019-05-25T06:46:32.398Z,5.85
2019-05-25T06:48:59.884Z,5.78
2019-05-25T06:51:27.334Z,6.87
2019-05-25T06:53:54.863Z,6.65
2019-05-25T06:56:22.494Z,6.18
2019-05-25T06:58:49.991Z,7.55
2019-05-25T07:01:17.471Z,9.32
2019-05-25T07:03:45.002Z,9.13
2019-05-25T07:06:12.512Z,8.18
2019-05-25T07:08:40.027Z,8.05
2019-05-25T07:11:07.497Z,8.30
2019-05-25T07:13:35.109Z,8.35
2019-05-25T07:16:02.772Z,8.85
2019-05-25T07:18:30.286Z,6.20
2019-05-25T07:20:58.214Z,8.25
2019-05-25T07:23:25.690Z,9.05
2019-05-25T07:25:53.342Z,10.23
2019-05-25T07:28:20.864Z,6.70
2019-05-25T07:30:48.328Z,7.62
2019-05-25T07:33:15.830Z,7.90
2019-05-25T07:35:43.323Z,8.00
2019-05-25T07:38:10.871Z,8.07
2019-05-25T07:40:38.341Z,8.52
2019-05-25T07:43:05.859Z,7.87
2019-05-25T07:45:33.552Z,6.78
2019-05-25T07:48:01.076Z,6.45
2019-05-25T07:50:28.605Z,7.85
2019-05-25T07:52:56.071Z,6.53
2019-05-25T07:55:23.537Z,6.57
2019-05-25T07:57:51.006Z,7.22
2019-05-25T08:00:18.591Z,7.20
2019-05-25T08:02:46.240Z,7.95
2019-05-25T08:05:13.861Z,8.45
2019-05-25T08:07:41.795Z,7.72
2019-05-25T08:10:09.295Z,8.60
2019-05-25T08:15:03.902Z,7.20
2019-05-25T08:17:32.279Z,6.22
2019-05-25T08:19:59.737Z,9.00
2019-05-25T08:22:27.230Z,17.52
2019-05-25T08:24:54.697Z,7.90
2019-05-25T08:27:23.188Z,6.90
2019-05-25T08:29:50.677Z,6.32
2019-05-25T08:32:18.132Z,8.77
2019-05-25T08:34:45.617Z,5.37
2019-05-25T08:37:13.069Z,6.70
2019-05-25T08:39:40.533Z,6.18
2019-05-25T08:42:08.090Z,6.63
2019-05-25T08:44:35.565Z,5.35
2019-05-25T08:47:03.095Z,7.18
2019-05-25T08:49:30.541Z,7.65
2019-05-25T08:51:58.050Z,6.78
2019-05-25T08:54:25.524Z,7.10
2019-05-25T08:56:53.155Z,5.90
2019-05-25T08:59:20.655Z,7.25
2019-05-25T09:01:48.225Z,5.72
2019-05-25T09:04:15.678Z,5.32
2019-05-25T09:06:43.169Z,5.05
2019-05-25T09:09:10.773Z,6.10
2019-05-25T09:11:38.280Z,6.22
2019-05-25T09:14:05.788Z,6.32
2019-05-25T09:16:33.234Z,6.85
2019-05-25T09:19:00.719Z,7.72
2019-05-25T09:21:28.227Z,6.75
2019-05-25T09:23:55.715Z,7.87
2019-05-25T09:26:23.250Z,6.30
2019-05-25T09:29:03.481Z,10.65
2019-05-25T09:31:18.387Z,7.30
2019-05-25T09:33:45.907Z,7.32
2019-05-25T09:36:13.388Z,6.75
2019-05-25T09:38:43.279Z,5.40
2019-05-25T09:41:08.582Z,5.62
2019-05-25T09:43:36.051Z,6.40
2019-05-25T09:46:03.612Z,6.87
2019-05-25T09:48:31.090Z,6.47
2019-05-25T09:50:58.709Z,5.80
2019-05-25T09:53:26.226Z,6.50
2019-05-25T09:55:53.789Z,7.53
2019-05-25T09:58:21.251Z,7.28
2019-05-25T10:00:48.710Z,6.70
2019-05-25T10:03:16.182Z,5.57
2019-05-25T10:05:43.676Z,7.43
2019-05-25T10:08:11.187Z,12.83
2019-05-25T10:10:38.634Z,6.57
2019-05-25T10:13:06.092Z,6.35
2019-05-25T10:15:33.629Z,6.30
2019-05-25T10:18:01.071Z,5.22
2019-05-25T10:20:29.310Z,4.95
2019-05-25T10:22:56.878Z,6.22
2019-05-25T10:25:24.399Z,7.30
2019-05-25T10:30:18.978Z,6.70
2019-05-25T10:32:46.474Z,5.93
2019-05-25T10:35:13.995Z,6.47
2019-05-25T10:37:41.520Z,6.32
2019-05-25T10:40:08.997Z,6.20
2019-05-25T10:42:36.502Z,6.05
2019-05-25T10:45:04.912Z,5.35
2019-05-25T10:47:32.379Z,6.43
2019-05-25T10:49:59.875Z,6.72
2019-05-25T10:52:27.353Z,6.43
2019-05-25T10:54:54.867Z,7.10
2019-05-25T10:57:22.339Z,7.93
2019-05-25T10:59:52.819Z,7.68
2019-05-25T11:02:17.325Z,6.40
2019-05-25T11:04:44.808Z,6.00
2019-05-25T11:07:12.386Z,6.30
2019-05-25T11:09:39.958Z,6.50
2019-05-25T11:12:07.428Z,6.53
2019-05-25T11:14:34.945Z,8.15
2019-05-25T11:17:02.396Z,5.65
2019-05-25T11:19:30.050Z,6.60
2019-05-25T11:21:57.509Z,7.32
2019-05-25T11:24:25.008Z,5.57
2019-05-25T11:26:52.531Z,5.82
2019-05-25T11:29:20.124Z,6.37
2019-05-25T11:31:55.289Z,5.82
2019-05-25T11:34:15.296Z,5.43
2019-05-25T11:36:43.046Z,6.37
2019-05-25T11:39:10.730Z,7.00
2019-05-25T11:41:38.224Z,6.35
2019-05-25T11:44:05.750Z,7.10
2019-05-25T11:46:33.910Z,6.93
2019-05-25T11:49:01.507Z,6.62
2019-05-25T11:51:29.033Z,6.60
2019-05-25T11:53:56.498Z,7.00
2019-05-25T11:56:23.991Z,7.37
2019-05-25T11:58:51.593Z,7.18
2019-05-25T12:01:19.046Z,7.90
2019-05-25T12:03:46.532Z,7.00
2019-05-25T12:06:13.991Z,6.40
2019-05-25T12:08:41.512Z,6.10
2019-05-25T12:11:09.076Z,4.75
2019-05-25T12:13:36.867Z,5.05
2019-05-25T12:16:04.388Z,5.75
2019-05-25T12:18:32.048Z,5.32
2019-05-25T12:20:59.532Z,6.00
2019-05-25T12:23:27.002Z,8.05
2019-05-25T12:25:54.456Z,5.40
2019-05-25T12:28:22.044Z,5.50
2019-05-25T12:30:49.514Z,6.03
2019-05-25T12:33:17.312Z,6.45
2019-05-25T12:35:45.349Z,5.70
2019-05-25T12:38:12.246Z,7.50
2019-05-25T12:40:52.847Z,6.60
2019-05-25T12:43:07.434Z,6.62
2019-05-25T12:45:35.000Z,8.45
2019-05-25T12:48:02.687Z,6.05
2019-05-25T12:50:30.160Z,6.95
2019-05-25T12:52:57.732Z,4.80
2019-05-25T12:55:25.964Z,9.60
2019-05-25T12:57:53.427Z,5.20
2019-05-25T13:00:22.160Z,5.85
2019-05-25T13:02:49.770Z,5.30
2019-05-25T13:05:31.165Z,5.10
2019-05-25T13:07:45.028Z,5.45
2019-05-25T13:10:12.578Z,6.60
2019-05-25T13:12:40.106Z,4.37
2019-05-25T13:15:07.575Z,6.20
2019-05-25T13:17:35.065Z,4.87
2019-05-25T13:20:02.607Z,4.62
2019-05-25T13:22:30.063Z,5.00
2019-05-25T13:24:57.554Z,4.20
2019-05-25T13:27:25.079Z,7.47
2019-05-25T13:29:52.531Z,4.20
2019-05-25T13:32:20.020Z,3.92
2019-05-25T13:34:47.715Z,3.80
2019-05-25T13:37:17.722Z,3.92
2019-05-25T13:39:42.762Z,4.18
2019-05-25T13:42:10.251Z,4.60
2019-05-25T13:44:37.915Z,4.55
2019-05-25T13:47:05.484Z,3.20
2019-05-25T13:49:33.436Z,4.40
2019-05-25T13:52:00.898Z,4.43
2019-05-25T13:54:28.402Z,5.20
2019-05-25T13:56:55.877Z,4.72
2019-05-25T13:59:23.342Z,4.95
2019-05-25T14:01:50.830Z,5.32
2019-05-25T14:04:18.305Z,4.65
2019-05-25T14:06:45.816Z,5.62
2019-05-25T14:09:15.851Z,4.20
2019-05-25T14:11:40.899Z,4.50
2019-05-25T14:14:08.370Z,3.80
2019-05-25T14:16:35.837Z,5.28
2019-05-25T14:19:03.346Z,4.18
2019-05-25T14:21:30.865Z,4.03
2019-05-25T14:23:58.354Z,3.37
2019-05-25T14:26:26.009Z,5.20
2019-05-25T14:28:53.590Z,4.35
2019-05-25T14:31:21.060Z,4.68
2019-05-25T14:33:49.490Z,2.35
2019-05-25T14:36:17.485Z,2.72
2019-05-25T14:38:44.979Z,3.22
2019-05-25T14:41:12.564Z,3.15
2019-05-25T14:43:40.031Z,4.60
2019-05-25T14:46:07.514Z,4.97
2019-05-25T14:58:23.076Z,2.83
2019-05-25T15:00:50.557Z,3.37
2019-05-25T15:03:18.151Z,2.97
2019-05-25T15:05:45.767Z,3.67
2019-05-25T15:08:13.439Z,4.43
2019-05-25T15:10:40.985Z,4.00
2019-05-25T15:13:08.442Z,4.53
2019-05-25T15:15:36.067Z,5.87
2019-05-25T15:18:03.539Z,7.15
2019-05-25T15:20:31.071Z,6.12
2019-05-25T15:22:58.636Z,6.78
2019-05-25T15:25:26.116Z,7.18
2019-05-25T15:27:53.599Z,5.87
2019-05-25T15:30:21.096Z,6.75
2019-05-25T15:32:48.591Z,7.07
2019-05-25T15:35:19.819Z,6.65
2019-05-25T15:37:43.584Z,6.65
2019-05-25T15:40:11.090Z,6.15
2019-05-25T15:42:38.559Z,5.95
2019-05-25T15:45:06.103Z,5.57
2019-05-25T15:47:33.568Z,7.35
2019-05-25T15:50:01.104Z,6.15
2019-05-25T15:52:28.683Z,6.07
2019-05-25T15:54:56.165Z,6.62
2019-05-25T15:57:23.629Z,6.65
2019-05-25T15:59:51.767Z,6.15
2019-05-25T16:02:33.881Z,4.28
2019-05-25T16:04:46.610Z,5.03
2019-05-25T16:07:14.108Z,4.97
2019-05-25T16:09:41.641Z,6.47
2019-05-25T16:12:09.135Z,4.85
2019-05-25T16:14:36.695Z,6.75
2019-05-25T16:17:04.166Z,7.05
2019-05-25T16:19:31.670Z,6.78
2019-05-25T16:21:59.109Z,7.70
2019-05-25T16:24:26.576Z,7.03
2019-05-25T16:26:54.046Z,8.20
2019-05-25T16:29:21.523Z,7.80
2019-05-25T16:31:48.975Z,10.20
2019-05-25T16:34:16.466Z,6.12
2019-05-25T16:36:43.957Z,6.95
2019-05-25T16:39:11.514Z,7.20
2019-05-25T16:41:38.971Z,6.25
2019-05-25T16:44:06.452Z,8.73
2019-05-25T16:46:34.021Z,8.07
2019-05-25T16:49:01.486Z,6.85
2019-05-25T16:51:28.939Z,6.10
2019-05-25T16:53:56.436Z,6.40
2019-05-25T16:56:23.919Z,5.97
2019-05-25T16:58:51.404Z,6.57
2019-05-25T17:01:18.863Z,6.97
2019-05-25T17:03:46.406Z,6.25
2019-05-25T17:06:13.852Z,5.47
2019-05-25T17:08:41.392Z,6.00
2019-05-25T17:11:08.923Z,5.57
2019-05-25T17:13:36.433Z,6.47
2019-05-25T17:16:03.953Z,5.40
2019-05-25T17:18:31.428Z,5.10
2019-05-25T17:20:58.912Z,5.43
2019-05-25T17:23:26.402Z,6.00
2019-05-25T17:25:53.843Z,6.40
2019-05-25T17:28:21.461Z,6.93
2019-05-25T17:30:48.935Z,6.62
2019-05-25T17:33:16.484Z,5.45
2019-05-25T17:35:44.013Z,7.05
2019-05-25T17:38:11.475Z,6.03
2019-05-25T17:40:38.924Z,6.03
2019-05-25T17:43:06.427Z,5.30
2019-05-25T17:45:33.913Z,4.30
2019-05-25T17:48:01.375Z,3.55
2019-05-25T17:50:28.935Z,6.28
2019-05-25T17:52:56.459Z,3.80
2019-05-25T17:55:23.966Z,7.35
2019-05-25T17:57:51.579Z,4.50
2019-05-25T18:00:35.932Z,5.60
2019-05-25T18:03:03.397Z,5.85
2019-05-25T18:05:30.918Z,5.15
2019-05-25T18:07:58.410Z,3.83
2019-05-25T18:10:25.908Z,5.90
2019-05-25T18:12:53.642Z,5.35
2019-05-25T18:15:21.147Z,4.75
2019-05-25T18:17:48.670Z,5.32
2019-05-25T18:20:16.176Z,6.57
2019-05-25T18:22:43.722Z,4.90
2019-05-25T18:25:11.213Z,5.00
2019-05-25T18:27:38.708Z,5.25
2019-05-25T18:30:06.178Z,5.32
2019-05-25T18:32:33.752Z,8.30
2019-05-25T18:35:01.453Z,8.75
2019-05-25T18:37:29.078Z,7.62
2019-05-25T18:39:56.550Z,8.05
2019-05-25T18:42:24.042Z,6.50
2019-05-25T18:44:51.498Z,7.35
2019-05-25T18:47:18.983Z,6.90
2019-05-25T18:49:47.007Z,7.28
2019-05-25T18:52:14.531Z,5.70
2019-05-25T18:54:42.033Z,5.78
2019-05-25T18:57:09.834Z,6.93
2019-05-25T18:59:37.335Z,7.43
2019-05-25T19:02:05.404Z,8.05
2019-05-25T19:04:45.299Z,7.80
2019-05-25T19:07:00.687Z,7.20
2019-05-25T19:09:28.341Z,6.20
2019-05-25T19:11:55.816Z,9.38
2019-05-25T19:14:23.439Z,6.35
2019-05-25T19:16:50.923Z,8.50
2019-05-25T19:19:18.652Z,8.43
2019-05-25T19:21:46.169Z,6.75
2019-05-25T19:24:13.638Z,6.70
2019-05-25T19:26:41.111Z,4.70
2019-05-25T19:29:08.625Z,7.05
2019-05-25T19:34:08.864Z,6.43
2019-05-25T19:36:36.320Z,7.60
2019-05-25T19:39:03.830Z,4.90
2019-05-25T19:41:31.273Z,6.75
2019-05-25T19:43:58.819Z,9.05
2019-05-25T19:46:26.318Z,7.82
2019-05-25T19:48:53.826Z,6.80
2019-05-25T19:51:21.318Z,8.10
2019-05-25T19:53:48.807Z,6.75
2019-05-25T19:56:16.280Z,9.02
2019-05-25T19:58:43.746Z,7.10
2019-05-25T20:01:11.216Z,5.53
2019-05-25T20:03:38.766Z,5.22
2019-05-25T20:06:06.227Z,7.70
2019-05-25T20:08:34.466Z,6.35
2019-05-25T20:11:01.954Z,6.75
2019-05-25T20:13:29.470Z,5.30
2019-05-25T20:15:57.027Z,4.60
2019-05-25T20:18:24.523Z,5.90
2019-05-25T20:20:51.987Z,5.45
2019-05-25T20:23:19.522Z,4.82
2019-05-25T20:25:47.305Z,5.22
2019-05-25T20:28:16.338Z,4.35
2019-05-25T20:30:43.892Z,6.47
2019-05-25T20:33:11.980Z,5.12
2019-05-25T20:35:39.498Z,7.15
2019-05-25T20:38:07.412Z,4.32
2019-05-25T20:40:34.918Z,4.00
2019-05-25T20:43:02.516Z,5.00
2019-05-25T20:45:30.020Z,4.37
2019-05-25T20:47:57.502Z,4.30
2019-05-25T20:50:25.253Z,4.87
2019-05-25T20:52:52.803Z,2.75
2019-05-25T20:55:20.295Z,2.80
2019-05-25T20:57:47.853Z,2.35
2019-05-25T21:00:15.408Z,2.95
2019-05-25T21:02:42.970Z,2.80
2019-05-25T21:05:10.558Z,2.47
2019-05-25T21:07:38.223Z,2.17
2019-05-25T21:10:07.815Z,2.28
2019-05-25T21:12:35.330Z,2.40
2019-05-25T21:15:02.922Z,2.90
2019-05-25T21:17:30.463Z,1.98
2019-05-25T21:19:58.148Z,2.40
2019-05-25T21:22:25.667Z,1.60
2019-05-25T21:24:53.228Z,2.70
2019-05-25T21:27:20.799Z,2.28
2019-05-25T21:29:48.311Z,2.62
2019-05-25T21:34:49.141Z,3.45
2019-05-25T21:37:16.638Z,2.72
2019-05-25T21:39:44.141Z,2.37
2019-05-25T21:42:11.672Z,2.70
2019-05-25T21:44:39.165Z,1.85
2019-05-25T21:47:06.670Z,3.05
2019-05-25T21:49:34.122Z,1.87
2019-05-25T21:52:01.602Z,1.62
2019-05-25T21:54:29.085Z,2.47
2019-05-25T21:56:57.074Z,2.75
2019-05-25T21:59:24.524Z,1.80
2019-05-25T22:01:52.025Z,2.45
2019-05-25T22:04:19.624Z,2.80
2019-05-25T22:06:47.182Z,2.60
2019-05-25T22:09:14.668Z,2.42
2019-05-25T22:11:42.138Z,2.25
2019-05-25T22:14:09.634Z,2.08
2019-05-25T22:16:37.128Z,1.75
2019-05-25T22:19:04.590Z,1.52
2019-05-25T22:21:32.171Z,1.80
2019-05-25T22:23:59.643Z,2.50
2019-05-25T22:26:27.219Z,2.65
2019-05-25T22:28:54.772Z,4.10
2019-05-25T22:31:22.294Z,1.85
2019-05-25T22:33:49.777Z,2.10
2019-05-25T22:36:17.357Z,1.95
2019-05-25T22:38:44.929Z,2.03
2019-05-25T22:41:12.441Z,1.92
2019-05-25T22:43:39.905Z,2.17
2019-05-25T22:46:07.390Z,1.67
2019-05-25T22:48:34.917Z,1.70
2019-05-25T22:51:02.451Z,1.65
2019-05-25T22:53:29.941Z,1.92
2019-05-25T22:55:57.504Z,1.58
2019-05-25T22:58:24.960Z,2.05
2019-05-25T23:00:52.406Z,2.20
2019-05-25T23:03:19.860Z,2.10
2019-05-25T23:05:47.375Z,2.05
2019-05-25T23:08:15.157Z,1.83
2019-05-25T23:10:42.611Z,2.25
2019-05-25T23:13:10.050Z,1.87
2019-05-25T23:15:37.607Z,2.65
2019-05-25T23:18:05.756Z,1.55
2019-05-25T23:20:36.380Z,1.98
2019-05-25T23:23:00.779Z,2.85
2019-05-25T23:25:28.267Z,2.97
2019-05-25T23:27:55.747Z,2.70
2019-05-25T23:30:23.589Z,2.03
2019-05-25T23:32:51.189Z,2.17
2019-05-25T23:35:18.670Z,2.15
2019-05-25T23:37:46.269Z,3.75
2019-05-25T23:40:13.788Z,2.75
2019-05-25T23:42:41.237Z,3.28
2019-05-25T23:45:08.736Z,2.50
2019-05-25T23:47:36.231Z,2.10
2019-05-25T23:50:05.581Z,1.80
2019-05-25T23:52:33.035Z,2.22
2019-05-25T23:55:04.189Z,1.80
2019-05-25T23:57:28.041Z,2.50
2019-05-25T23:59:55.651Z,1.85
